Time;durP1;ratioP1;P1;durP2;ratioP2;P2;SDS_P1;SDS_P2;PMS_P1;PMS_P2;Temp;Humidity;BMP_temperature;BMP_pressure;BME280_temperature;BME280_humidity;BME280_pressure;Samples;Min_cycle;Max_cycle;Signal;HPM_P1;HPM_P2
2022/11/16 00:01:21;;;;;;;16.30;12.00;;;15.40;99.90;;;;;;4590223;19;20518;-25
2022/11/16 00:02:52;;;;;;;18.27;12.88;;;15.40;99.90;;;;;;4589233;19;20026;-24
2022/11/16 00:04:23;;;;;;;16.33;12.27;;;15.40;99.90;;;;;;4591007;19;20017;-24
2022/11/16 00:05:56;;;;;;;15.98;12.30;;;15.40;99.90;;;;;;4590632;19;20014;-24
2022/11/16 00:07:27;;;;;;;17.25;12.65;;;15.40;99.90;;;;;;4590097;19;20479;-25
2022/11/16 00:10:49;;;;;;;15.20;11.47;;;15.40;99.90;;;;;;4590574;19;20011;-24
2022/11/16 00:12:22;;;;;;;14.85;11.40;;;15.40;99.90;;;;;;4592694;19;20476;-24
2022/11/16 00:13:53;;;;;;;17.55;12.65;;;15.40;99.90;;;;;;4593138;19;20006;-24
2022/11/16 00:15:33;;;;;;;15.38;11.57;;;15.40;99.90;;;;;;4592199;19;20015;-24
2022/11/16 00:17:04;;;;;;;15.30;11.60;;;15.40;99.90;;;;;;4591311;19;20010;-24
2022/11/16 00:18:35;;;;;;;15.68;11.60;;;15.40;99.90;;;;;;4591691;19;20018;-24
2022/11/16 00:20:07;;;;;;;15.85;11.93;;;15.40;99.90;;;;;;4591256;19;20460;-24
2022/11/16 00:24:41;;;;;;;15.18;11.25;;;15.40;99.90;;;;;;4590843;19;20324;-24
2022/11/16 00:26:13;;;;;;;14.57;11.25;;;15.40;99.90;;;;;;4591663;19;20010;-23
2022/11/16 00:27:44;;;;;;;17.20;11.48;;;15.40;99.90;;;;;;4592502;19;20014;-24
2022/11/16 00:29:20;;;;;;;16.35;11.95;;;15.40;99.90;;;;;;4592193;19;20014;-24
2022/11/16 00:31:02;;;;;;;16.05;11.55;;;15.40;99.90;;;;;;4593022;19;20437;-24
2022/11/16 00:32:33;;;;;;;19.10;12.65;;;15.40;99.90;;;;;;4591084;19;20467;-24
2022/11/16 00:34:04;;;;;;;17.60;12.13;;;15.40;99.90;;;;;;4590592;19;20018;-24
2022/11/16 00:35:39;;;;;;;17.30;12.95;;;15.40;99.90;;;;;;4591581;19;20014;-24
2022/11/16 00:37:10;;;;;;;15.68;11.38;;;15.40;99.90;;;;;;4592425;19;20344;-24
2022/11/16 00:38:41;;;;;;;15.95;11.55;;;15.40;99.90;;;;;;4590651;19;20011;-25
2022/11/16 00:40:12;;;;;;;16.20;12.32;;;15.30;99.90;;;;;;4590857;19;20018;-24
2022/11/16 00:41:43;;;;;;;15.50;12.32;;;15.40;99.90;;;;;;4589036;19;20494;-24
2022/11/16 00:43:14;;;;;;;17.25;12.60;;;15.40;99.90;;;;;;4593328;19;20042;-25
2022/11/16 00:44:46;;;;;;;15.10;11.68;;;15.40;99.90;;;;;;4593121;19;20523;-24
2022/11/16 00:46:17;;;;;;;15.43;11.18;;;15.40;99.90;;;;;;4592620;19;20010;-24
2022/11/16 00:47:48;;;;;;;16.95;12.50;;;15.40;99.90;;;;;;4593828;19;20015;-24
2022/11/16 00:49:21;;;;;;;17.98;12.88;;;15.40;99.90;;;;;;4594075;19;20018;-24
2022/11/16 00:50:52;;;;;;;16.70;12.23;;;15.40;99.90;;;;;;4591815;19;20017;-24
2022/11/16 00:52:23;;;;;;;16.80;12.82;;;15.40;99.90;;;;;;4591149;19;20031;-24
2022/11/16 00:53:54;;;;;;;14.60;11.07;;;15.40;99.90;;;;;;4592400;19;20006;-24
2022/11/16 00:55:25;;;;;;;15.45;10.98;;;15.40;99.90;;;;;;4590345;19;20011;-24
2022/11/16 00:56:56;;;;;;;15.30;11.48;;;15.40;99.90;;;;;;4591928;19;20024;-24
2022/11/16 00:58:28;;;;;;;14.88;11.48;;;15.40;99.90;;;;;;4592014;19;20018;-23
2022/11/16 00:59:58;;;;;;;16.77;12.23;;;15.40;99.90;;;;;;4592048;19;20468;-24
2022/11/16 01:01:29;;;;;;;15.27;11.65;;;15.40;99.90;;;;;;4591591;19;20038;-24
2022/11/16 01:03:00;;;;;;;16.52;11.68;;;15.40;99.90;;;;;;4590251;19;20010;-24
2022/11/16 01:04:32;;;;;;;15.77;11.43;;;15.40;99.90;;;;;;4589875;19;20010;-24
2022/11/16 01:06:05;;;;;;;17.42;12.30;;;15.40;99.90;;;;;;4591638;19;20019;-24
2022/11/16 01:07:36;;;;;;;14.48;11.02;;;15.40;99.90;;;;;;4591550;19;20006;-24
2022/11/16 01:09:07;;;;;;;;;;;15.40;99.90;;;;;;4591028;19;20342;-23
2022/11/16 01:10:39;;;;;;;18.23;11.38;;;15.40;99.90;;;;;;4591311;19;19917;-24
2022/11/16 01:12:11;;;;;;;16.80;12.13;;;15.30;99.90;;;;;;4590317;19;20018;-24
2022/11/16 01:13:42;;;;;;;16.33;12.05;;;15.30;99.90;;;;;;4591059;19;20612;-24
2022/11/16 01:15:13;;;;;;;15.15;12.02;;;15.40;99.90;;;;;;4591240;19;20031;-24
2022/11/16 01:16:47;;;;;;;15.63;11.68;;;15.40;99.90;;;;;;4590348;19;20006;-24
2022/11/16 01:18:18;;;;;;;15.02;11.85;;;15.30;99.90;;;;;;4589890;19;20015;-24
2022/11/16 01:19:49;;;;;;;16.17;12.13;;;15.40;99.90;;;;;;4590057;19;20020;-24
2022/11/16 01:21:20;;;;;;;15.35;11.88;;;15.30;99.90;;;;;;4590657;19;20094;-24
2022/11/16 01:22:52;;;;;;;16.75;11.88;;;15.40;99.90;;;;;;4589358;19;20014;-24
2022/11/16 01:24:24;;;;;;;17.70;12.40;;;15.30;99.90;;;;;;4589752;19;20505;-23
2022/11/16 01:26:00;;;;;;;16.67;11.77;;;15.40;99.90;;;;;;4590986;19;20018;-24
2022/11/16 01:27:31;;;;;;;15.40;11.45;;;15.40;99.90;;;;;;4591055;19;20022;-24
2022/11/16 01:29:02;;;;;;;16.70;12.25;;;15.30;99.90;;;;;;4589961;19;20099;-23
2022/11/16 01:30:33;;;;;;;15.48;11.68;;;15.30;99.90;;;;;;4590307;19;20479;-24
2022/11/16 01:32:05;;;;;;;15.82;12.05;;;15.30;99.90;;;;;;4590656;19;20029;-24
2022/11/16 01:33:36;;;;;;;17.05;11.27;;;15.30;99.90;;;;;;4590866;19;20010;-24
2022/11/16 01:35:07;;;;;;;18.08;12.70;;;15.40;99.90;;;;;;4590203;19;20081;-24
2022/11/16 01:36:38;;;;;;;;;;;15.30;99.90;;;;;;4591247;19;20562;-24
2022/11/16 01:38:09;;;;;;;16.50;12.20;;;15.30;99.90;;;;;;4591217;19;19935;-23
2022/11/16 01:39:41;;;;;;;16.60;12.15;;;15.30;99.90;;;;;;4589901;19;20035;-24
2022/11/16 01:41:17;;;;;;;17.13;11.85;;;15.30;99.90;;;;;;4589299;19;20025;-24
2022/11/16 01:42:48;;;;;;;15.98;12.05;;;15.30;99.90;;;;;;4589466;19;20011;-24
2022/11/16 01:44:31;;;;;;;17.05;13.07;;;15.30;99.90;;;;;;4589867;19;20066;-24
2022/11/16 01:46:02;;;;;;;16.27;12.43;;;15.30;99.90;;;;;;4590793;19;20025;-24
2022/11/16 01:47:33;;;;;;;16.33;11.88;;;15.30;99.90;;;;;;4589587;19;20006;-24
2022/11/16 01:49:12;;;;;;;17.00;12.20;;;15.30;99.90;;;;;;4590168;19;20082;-24
2022/11/16 01:50:43;;;;;;;17.05;12.30;;;15.30;99.90;;;;;;4589203;19;20018;-24
2022/11/16 01:52:22;;;;;;;17.58;12.45;;;15.30;99.90;;;;;;4589691;19;20332;-24
2022/11/16 01:53:53;;;;;;;16.25;12.35;;;15.30;99.90;;;;;;4590214;19;19995;-24
2022/11/16 01:55:24;;;;;;;16.27;12.18;;;15.30;99.90;;;;;;4588246;19;20349;-23
2022/11/16 01:56:55;;;;;;;16.63;12.50;;;15.30;99.90;;;;;;4589694;19;20011;-25
2022/11/16 01:58:26;;;;;;;15.98;12.65;;;15.30;99.90;;;;;;4589783;19;20062;-24
2022/11/16 01:59:58;;;;;;;17.52;13.25;;;15.30;99.90;;;;;;4589149;19;20018;-25
2022/11/16 02:01:29;;;;;;;17.02;12.18;;;15.30;99.90;;;;;;4589294;19;20022;-24
2022/11/16 02:03:00;;;;;;;18.25;13.27;;;15.30;99.90;;;;;;4587835;19;20014;-24
2022/11/16 02:04:31;;;;;;;15.80;12.43;;;15.30;99.90;;;;;;4588753;19;20028;-23
2022/11/16 02:06:25;;;;;;;17.38;12.88;;;15.30;99.90;;;;;;4589836;19;20027;-23
2022/11/16 02:10:16;;;;;;;18.80;11.98;;;15.30;99.90;;;;;;4587643;19;20010;-24
2022/11/16 02:11:49;;;;;;;16.98;12.38;;;15.30;99.90;;;;;;4588276;19;20017;-23
2022/11/16 02:13:48;;;;;;;18.02;12.45;;;15.30;99.90;;;;;;4587818;19;20003;-25
2022/11/16 02:15:42;;;;;;;16.58;12.05;;;15.30;99.90;;;;;;4587642;19;20424;-25
2022/11/16 02:17:22;;;;;;;17.13;11.63;;;15.30;99.90;;;;;;4588138;19;20078;-24
2022/11/16 02:19:28;;;;;;;18.65;12.45;;;15.30;99.90;;;;;;4588711;19;19995;-24
2022/11/16 02:21:27;;;;;;;15.48;11.73;;;15.30;99.90;;;;;;4588075;19;20007;-24
2022/11/16 02:23:15;;;;;;;17.48;12.75;;;15.30;99.90;;;;;;4586576;19;19995;-24
2022/11/16 02:25:07;;;;;;;15.57;11.52;;;15.30;99.90;;;;;;4587818;19;20031;-24
2022/11/16 02:27:00;;;;;;;15.98;12.05;;;15.30;99.90;;;;;;4587505;19;20014;-24
2022/11/16 02:28:38;;;;;;;15.95;12.88;;;15.30;99.90;;;;;;4587738;19;20015;-23
2022/11/16 02:30:09;;;;;;;17.15;12.35;;;15.30;99.90;;;;;;4587958;19;20014;-24
2022/11/16 02:31:45;;;;;;;15.70;11.80;;;15.30;99.90;;;;;;4587524;19;20018;-24
2022/11/16 02:33:17;;;;;;;15.02;12.35;;;15.30;99.90;;;;;;4587420;19;20032;-24
2022/11/16 02:34:51;;;;;;;18.73;12.88;;;15.30;99.90;;;;;;4587375;19;20015;-24
2022/11/16 02:36:22;;;;;;;16.48;11.48;;;15.30;99.90;;;;;;4587728;19;20029;-24
2022/11/16 02:38:00;;;;;;;16.50;12.23;;;15.30;99.90;;;;;;4587584;19;20014;-24
2022/11/16 02:39:31;;;;;;;15.52;11.30;;;15.30;99.90;;;;;;4587423;19;20028;-24
2022/11/16 02:41:11;;;;;;;16.45;12.90;;;15.30;99.90;;;;;;4586523;19;20014;-24
2022/11/16 02:42:46;;;;;;;16.92;12.18;;;15.30;99.90;;;;;;4586509;19;20035;-24
2022/11/16 02:44:23;;;;;;;14.00;10.77;;;15.30;99.90;;;;;;4587924;19;20014;-23
2022/11/16 02:45:56;;;;;;;15.77;11.43;;;15.30;99.90;;;;;;4587526;19;20410;-24
2022/11/16 02:47:29;;;;;;;16.63;11.70;;;15.30;99.90;;;;;;4587783;19;20018;-24
2022/11/16 02:49:01;;;;;;;15.05;11.55;;;15.30;99.90;;;;;;4588395;19;20011;-24
2022/11/16 02:50:32;;;;;;;16.98;12.27;;;15.30;99.90;;;;;;4588827;19;20007;-24
2022/11/16 02:52:03;;;;;;;18.45;12.73;;;15.30;99.90;;;;;;4588107;19;20488;-23
2022/11/16 02:53:50;;;;;;;18.25;12.55;;;15.30;99.90;;;;;;4589260;19;20096;-24
2022/11/16 03:05:41;;;;;;;17.97;12.77;;;15.30;99.90;;;;;;4587965;19;20062;-24
2022/11/16 03:07:13;;;;;;;19.23;12.55;;;15.30;99.90;;;;;;4589041;19;20011;-24
2022/11/16 03:08:45;;;;;;;;;;;15.20;99.90;;;;;;4588858;19;20018;-24
2022/11/16 03:11:58;;;;;;;17.75;12.48;;;15.30;99.90;;;;;;4587953;19;19915;-24
2022/11/16 03:12:10;;;;;;;17.95;13.10;;;15.30;99.90;;;;;;4589169;19;20334;-24
2022/11/16 03:13:41;;;;;;;18.17;13.20;;;15.20;99.90;;;;;;4587726;19;20476;-24
2022/11/16 03:15:12;;;;;;;18.98;13.20;;;15.20;99.90;;;;;;4591604;19;20010;-23
2022/11/16 03:16:47;;;;;;;17.27;13.13;;;15.30;99.90;;;;;;4593594;19;20009;-24
2022/11/16 03:18:19;;;;;;;17.33;12.57;;;15.30;99.90;;;;;;4592429;19;20039;-24
2022/11/16 03:20:10;;;;;;;15.45;11.98;;;15.30;99.90;;;;;;4592871;19;20453;-24
2022/11/16 03:22:09;;;;;;;18.77;13.00;;;15.30;99.90;;;;;;4593943;19;20015;-24
2022/11/16 03:23:40;;;;;;;18.73;13.10;;;15.20;99.90;;;;;;4591265;19;20003;-24
2022/11/16 03:25:13;;;;;;;20.50;14.20;;;15.30;99.90;;;;;;4591178;19;20528;-23
2022/11/16 03:27:22;;;;;;;17.00;12.15;;;15.30;99.90;;;;;;4591321;19;20025;-24
2022/11/16 03:28:57;;;;;;;19.67;13.95;;;15.30;99.90;;;;;;4590991;19;20035;-24
2022/11/16 03:30:30;;;;;;;18.90;13.23;;;15.20;99.90;;;;;;4591442;19;20077;-23
2022/11/16 03:32:08;;;;;;;19.23;13.60;;;15.20;99.90;;;;;;4591091;19;20018;-24
2022/11/16 03:33:42;;;;;;;19.77;14.93;;;15.20;99.90;;;;;;4591086;19;20022;-23
2022/11/16 03:35:18;;;;;;;19.60;14.23;;;15.20;99.90;;;;;;4591268;19;20040;-24
2022/11/16 03:36:49;;;;;;;18.98;13.10;;;15.30;99.90;;;;;;4591439;19;20023;-23
2022/11/16 03:38:21;;;;;;;19.40;13.05;;;15.20;99.90;;;;;;4590816;19;20358;-24
2022/11/16 03:39:51;;;;;;;17.73;12.88;;;15.30;99.90;;;;;;4590864;19;20011;-24
2022/11/16 03:41:22;;;;;;;19.55;13.43;;;15.30;99.90;;;;;;4591120;19;20558;-24
2022/11/16 03:42:54;;;;;;;20.15;13.55;;;15.20;99.90;;;;;;4589531;19;20018;-24
2022/11/16 03:44:25;;;;;;;20.02;14.02;;;15.20;99.90;;;;;;4591509;19;20013;-24
2022/11/16 03:45:57;;;;;;;19.63;14.20;;;15.30;99.90;;;;;;4590770;19;20018;-24
2022/11/16 03:47:29;;;;;;;20.27;14.10;;;15.30;99.90;;;;;;4591231;19;20017;-23
2022/11/16 03:49:01;;;;;;;21.48;14.57;;;15.20;99.90;;;;;;4590694;19;20472;-24
2022/11/16 03:50:32;;;;;;;20.17;14.18;;;15.20;99.90;;;;;;4590723;19;20096;-24
2022/11/16 03:52:03;;;;;;;19.88;13.32;;;15.20;99.90;;;;;;4590809;19;20015;-24
2022/11/16 03:53:34;;;;;;;20.13;14.80;;;15.20;99.90;;;;;;4590962;19;20366;-23
2022/11/16 03:55:06;;;;;;;20.30;14.02;;;15.20;99.90;;;;;;4589619;19;20022;-24
2022/11/16 03:56:37;;;;;;;17.73;14.20;;;15.20;99.90;;;;;;4590704;19;20335;-24
2022/11/16 03:58:08;;;;;;;19.83;14.32;;;15.20;99.90;;;;;;4590771;19;20027;-24
2022/11/16 03:59:39;;;;;;;19.95;14.18;;;15.20;99.90;;;;;;4590432;19;20021;-24
2022/11/16 04:01:10;;;;;;;19.52;13.82;;;15.20;99.90;;;;;;4591025;19;20034;-24
2022/11/16 04:02:41;;;;;;;22.73;14.20;;;15.20;99.90;;;;;;4589578;19;20016;-23
2022/11/16 04:24:10;;;;;;;19.75;13.70;;;15.30;99.90;;;;;;4590490;19;20010;-24
2022/11/16 04:24:48;;;;;;;19.35;13.00;;;15.20;99.90;;;;;;4590586;19;20014;-24
2022/11/16 04:28:11;;;;;;;16.83;12.05;;;15.20;99.90;;;;;;4588529;19;20022;-24
2022/11/16 04:28:12;;;;;;;16.10;11.77;;;15.20;99.90;;;;;;4589859;19;20014;-24
2022/11/16 04:29:43;;;;;;;18.35;13.07;;;15.20;99.90;;;;;;4589738;19;20410;-24
2022/11/16 04:38:32;;;;;;;14.73;10.98;;;15.20;99.90;;;;;;4589734;19;20016;-24
2022/11/16 04:40:04;;;;;;;13.35;9.63;;;15.20;99.90;;;;;;4589636;19;20408;-23
2022/11/16 04:43:24;;;;;;;11.27;8.68;;;15.20;99.90;;;;;;4589801;19;20472;-24
2022/11/16 04:48:35;;;;;;;9.65;6.85;;;15.30;99.90;;;;;;4589543;19;20014;-23
2022/11/16 04:50:07;;;;;;;10.40;7.07;;;15.40;99.90;;;;;;4589373;19;20025;-23
2022/11/16 04:51:38;;;;;;;10.85;7.32;;;15.50;99.90;;;;;;4591438;19;20389;-24
2022/11/16 04:53:10;;;;;;;10.38;7.40;;;15.60;99.90;;;;;;4589630;19;20029;-24
2022/11/16 04:54:40;;;;;;;9.88;7.57;;;15.60;99.90;;;;;;4589153;19;20026;-23
2022/11/16 04:56:12;;;;;;;11.85;7.90;;;15.70;99.90;;;;;;4586202;19;20010;-23
2022/11/16 04:57:43;;;;;;;11.60;7.28;;;15.70;99.90;;;;;;4588782;19;20018;-24
2022/11/16 04:59:14;;;;;;;9.90;7.00;;;15.80;99.90;;;;;;4588663;19;20082;-25
2022/11/16 05:00:45;;;;;;;10.63;7.05;;;15.80;99.90;;;;;;4589585;19;20010;-25
2022/11/16 05:02:16;;;;;;;11.07;7.35;;;15.80;99.90;;;;;;4588647;19;20011;-24
2022/11/16 05:03:47;;;;;;;10.98;7.47;;;15.80;99.90;;;;;;4589776;19;20464;-24
2022/11/16 05:05:18;;;;;;;9.98;7.32;;;15.80;99.90;;;;;;4588615;19;20017;-24
2022/11/16 05:06:49;;;;;;;10.73;7.68;;;15.80;99.90;;;;;;4588662;19;20014;-25
2022/11/16 05:08:20;;;;;;;10.48;7.45;;;15.80;99.90;;;;;;4587834;19;20007;-25
2022/11/16 05:09:51;;;;;;;10.50;7.95;;;15.80;99.90;;;;;;4589493;19;20011;-25
2022/11/16 05:11:22;;;;;;;10.48;7.75;;;15.70;99.90;;;;;;4588203;19;20049;-24
2022/11/16 05:12:53;;;;;;;;;;;15.80;99.90;;;;;;4590350;19;20027;-24
2022/11/16 05:14:24;;;;;;;12.38;8.68;;;15.80;99.90;;;;;;4588876;19;20321;-25
2022/11/16 05:15:55;;;;;;;12.10;9.82;;;15.80;99.90;;;;;;4589231;19;20131;-24
2022/11/16 05:17:27;;;;;;;12.48;9.57;;;15.70;99.90;;;;;;4589329;19;20026;-25
2022/11/16 05:20:59;;;;;;;11.13;7.90;;;15.80;99.90;;;;;;4590709;19;20511;-24
2022/11/16 05:22:32;;;;;;;11.18;8.40;;;15.90;99.90;;;;;;4591109;19;20356;-24
2022/11/16 05:25:53;;;;;;;12.32;8.70;;;15.70;99.90;;;;;;4587206;19;20479;-24
2022/11/16 05:27:25;;;;;;;11.52;7.90;;;15.70;99.90;;;;;;4591632;19;20010;-24
2022/11/16 05:28:56;;;;;;;11.27;8.02;;;15.70;99.90;;;;;;4590839;19;20046;-24
2022/11/16 05:30:28;;;;;;;12.93;9.55;;;15.70;99.90;;;;;;4589891;19;20006;-25
2022/11/16 05:32:00;;;;;;;12.40;8.43;;;15.70;99.90;;;;;;4589326;19;20022;-23
2022/11/16 05:33:31;;;;;;;12.52;9.02;;;15.60;99.90;;;;;;4592055;19;20022;-24
2022/11/16 05:35:02;;;;;;;11.90;8.40;;;15.60;99.90;;;;;;4588753;19;20054;-24
2022/11/16 05:36:33;;;;;;;12.45;9.18;;;15.60;99.90;;;;;;4591188;19;20033;-24
2022/11/16 05:38:04;;;;;;;11.77;8.80;;;15.60;99.90;;;;;;4589765;19;20023;-24
2022/11/16 05:39:35;;;;;;;13.55;8.93;;;15.60;99.90;;;;;;4589702;19;20011;-23
2022/11/16 05:41:06;;;;;;;11.93;9.00;;;15.60;99.90;;;;;;4591420;19;20017;-24
2022/11/16 05:42:37;;;;;;;12.95;8.57;;;15.60;99.90;;;;;;4589770;19;20422;-24
2022/11/16 05:44:09;;;;;;;11.85;8.25;;;15.60;99.90;;;;;;4591112;19;20011;-23
2022/11/16 05:45:41;;;;;;;13.57;9.38;;;15.60;99.90;;;;;;4589931;19;20011;-23
2022/11/16 05:47:12;;;;;;;12.68;9.35;;;15.60;99.90;;;;;;4591079;19;20015;-24
2022/11/16 05:48:43;;;;;;;14.65;9.75;;;15.60;99.90;;;;;;4590163;19;20019;-24
2022/11/16 05:50:15;;;;;;;14.23;10.18;;;15.60;99.90;;;;;;4590602;19;20050;-24
2022/11/16 05:51:46;;;;;;;13.30;9.50;;;15.60;99.90;;;;;;4591261;19;20389;-23
2022/11/16 05:53:17;;;;;;;14.23;9.82;;;15.60;99.90;;;;;;4589359;19;20040;-24
2022/11/16 05:54:48;;;;;;;15.35;10.63;;;15.60;99.90;;;;;;4590231;19;20007;-24
2022/11/16 05:56:19;;;;;;;16.33;10.77;;;15.60;99.90;;;;;;4589513;19;20016;-24
2022/11/16 05:57:50;;;;;;;15.90;11.00;;;15.50;99.90;;;;;;4589311;19;20038;-24
2022/11/16 05:59:22;;;;;;;15.73;11.20;;;15.60;99.90;;;;;;4589966;19;20051;-25
2022/11/16 06:00:52;;;;;;;14.27;10.10;;;15.50;99.90;;;;;;4589890;19;20026;-23
2022/11/16 06:02:23;;;;;;;18.48;11.75;;;15.50;99.90;;;;;;4589384;19;20025;-25
2022/11/16 06:03:57;;;;;;;13.85;10.52;;;15.50;99.90;;;;;;4589766;19;20018;-23
2022/11/16 06:05:28;;;;;;;16.33;11.37;;;15.50;99.90;;;;;;4589249;19;20047;-24
2022/11/16 06:06:59;;;;;;;16.90;12.30;;;15.50;99.90;;;;;;4589538;19;20019;-24
2022/11/16 06:08:30;;;;;;;16.67;12.63;;;15.50;99.90;;;;;;4590543;19;20052;-24
2022/11/16 06:10:01;;;;;;;16.27;12.25;;;15.50;99.90;;;;;;4589477;19;20022;-24
2022/11/16 06:11:32;;;;;;;18.33;11.98;;;15.50;99.90;;;;;;4588796;19;20022;-24
2022/11/16 06:13:03;;;;;;;14.27;11.38;;;15.50;99.90;;;;;;4589978;19;20010;-24
2022/11/16 06:14:34;;;;;;;15.52;11.70;;;15.50;99.90;;;;;;4588062;19;20064;-24
2022/11/16 06:16:05;;;;;;;14.77;10.32;;;15.50;99.90;;;;;;4589376;19;20468;-25
2022/11/16 06:17:37;;;;;;;15.48;11.40;;;15.50;99.90;;;;;;4588792;19;20011;-23
2022/11/16 06:19:08;;;;;;;16.30;10.88;;;15.50;99.90;;;;;;4589177;19;20017;-24
2022/11/16 06:20:39;;;;;;;14.10;10.50;;;15.50;99.90;;;;;;4589129;19;20015;-24
2022/11/16 06:22:10;;;;;;;14.82;10.73;;;15.50;99.90;;;;;;4590267;19;20014;-24
2022/11/16 06:23:41;;;;;;;14.23;10.95;;;15.50;99.90;;;;;;4589704;19;20029;-24
2022/11/16 06:25:12;;;;;;;15.73;11.57;;;15.50;99.90;;;;;;4589442;19;20330;-24
2022/11/16 06:26:44;;;;;;;19.60;14.35;;;15.50;99.90;;;;;;4589729;19;20400;-24
2022/11/16 06:28:15;;;;;;;21.35;14.93;;;15.50;99.90;;;;;;4586975;19;20011;-24
2022/11/16 06:29:46;;;;;;;29.10;20.55;;;15.50;99.90;;;;;;4590397;19;20042;-24
2022/11/16 06:31:19;;;;;;;55.20;34.70;;;15.40;99.90;;;;;;4589848;19;20010;-24
2022/11/16 06:32:50;;;;;;;37.67;25.58;;;15.50;99.90;;;;;;4589270;19;20026;-25
2022/11/16 06:34:21;;;;;;;22.75;15.82;;;15.50;99.90;;;;;;4589803;19;20015;-23
2022/11/16 06:35:53;;;;;;;21.63;13.68;;;15.50;99.90;;;;;;4588625;19;20184;-23
2022/11/16 06:37:24;;;;;;;16.45;10.98;;;15.50;99.90;;;;;;4589607;19;20171;-24
2022/11/16 06:38:57;;;;;;;15.10;11.73;;;15.50;99.90;;;;;;4589222;19;20226;-24
2022/11/16 06:40:28;;;;;;;14.30;10.20;;;15.60;99.90;;;;;;4588705;19;20520;-24
2022/11/16 06:41:59;;;;;;;14.20;9.98;;;15.60;99.90;;;;;;4588050;19;20015;-23
2022/11/16 06:43:30;;;;;;;13.27;9.30;;;15.60;99.90;;;;;;4587625;19;20405;-24
2022/11/16 06:45:01;;;;;;;13.15;9.30;;;15.70;99.90;;;;;;4588781;19;20018;-24
2022/11/16 06:46:32;;;;;;;13.57;9.50;;;15.70;99.90;;;;;;4589784;19;20019;-24
2022/11/16 06:48:03;;;;;;;13.68;9.32;;;15.70;99.90;;;;;;4590341;19;19998;-24
2022/11/16 06:49:34;;;;;;;13.60;9.55;;;15.60;99.90;;;;;;4588647;19;20014;-23
2022/11/16 06:51:05;;;;;;;12.32;9.30;;;15.60;99.90;;;;;;4592805;19;20021;-24
2022/11/16 06:52:36;;;;;;;13.32;9.75;;;15.50;99.90;;;;;;4593918;19;20471;-25
2022/11/16 06:54:07;;;;;;;13.90;9.15;;;15.60;99.90;;;;;;4594965;19;20490;-24
2022/11/16 06:55:38;;;;;;;12.85;9.30;;;15.50;99.90;;;;;;4591129;19;20015;-23
2022/11/16 06:57:09;;;;;;;13.73;9.50;;;15.50;99.90;;;;;;4593488;19;20011;-24
2022/11/16 06:58:41;;;;;;;14.02;8.82;;;15.50;99.90;;;;;;4594715;19;20010;-23
2022/11/16 07:00:12;;;;;;;13.13;8.95;;;15.50;99.90;;;;;;4594415;19;20006;-24
2022/11/16 07:01:45;;;;;;;12.50;8.57;;;15.50;99.90;;;;;;4593888;19;20027;-24
2022/11/16 07:03:16;;;;;;;10.88;7.78;;;15.50;99.90;;;;;;4592317;19;20014;-23
2022/11/16 07:04:48;;;;;;;12.73;8.52;;;15.50;99.90;;;;;;4592492;19;20041;-24
2022/11/16 07:06:19;;;;;;;11.25;8.13;;;15.50;99.90;;;;;;4591290;19;20010;-24
2022/11/16 07:07:54;;;;;;;11.85;7.78;;;15.50;99.90;;;;;;4593046;19;20011;-24
2022/11/16 07:09:25;;;;;;;11.85;8.60;;;15.50;99.90;;;;;;4593790;19;20082;-22
2022/11/16 07:10:56;;;;;;;11.60;8.18;;;15.50;99.90;;;;;;4594278;19;20022;-23
2022/11/16 07:12:27;;;;;;;12.80;8.85;;;15.50;99.90;;;;;;4592220;19;20015;-24
2022/11/16 07:13:59;;;;;;;11.32;7.45;;;15.50;99.90;;;;;;4592370;19;20074;-24
2022/11/16 07:15:35;;;;;;;10.07;7.10;;;15.50;99.90;;;;;;4593356;19;20014;-24
2022/11/16 07:17:09;;;;;;;10.07;7.22;;;15.50;99.90;;;;;;4592858;19;20018;-24
2022/11/16 07:18:40;;;;;;;9.43;6.35;;;15.50;99.90;;;;;;4592951;19;20045;-24
2022/11/16 07:20:11;;;;;;;11.48;7.10;;;15.50;99.90;;;;;;4592490;19;20082;-24
2022/11/16 07:21:43;;;;;;;9.60;6.65;;;15.50;99.90;;;;;;4593179;19;20010;-24
2022/11/16 07:23:14;;;;;;;10.00;6.32;;;15.50;99.90;;;;;;4592686;19;19995;-23
2022/11/16 07:24:45;;;;;;;9.20;6.40;;;15.50;99.90;;;;;;4593325;19;20380;-24
2022/11/16 07:26:17;;;;;;;10.07;6.50;;;15.50;99.90;;;;;;4593326;19;20380;-24
2022/11/16 07:27:47;;;;;;;11.18;6.45;;;15.50;99.90;;;;;;4592297;19;20027;-25
2022/11/16 07:29:20;;;;;;;9.75;5.88;;;15.50;99.90;;;;;;4593142;19;20007;-24
2022/11/16 07:30:51;;;;;;;10.73;7.15;;;15.50;99.90;;;;;;4592109;19;20018;-23
2022/11/16 07:32:22;;;;;;;10.07;6.63;;;15.50;99.90;;;;;;4591676;19;20007;-24
2022/11/16 07:33:53;;;;;;;9.25;6.03;;;15.50;99.90;;;;;;4593834;19;20010;-24
2022/11/16 07:35:24;;;;;;;9.13;5.70;;;15.50;99.90;;;;;;4593014;19;20006;-23
2022/11/16 07:36:55;;;;;;;10.18;5.93;;;15.50;99.90;;;;;;4593014;19;20411;-23
2022/11/16 07:38:26;;;;;;;9.07;5.85;;;15.50;99.90;;;;;;4593534;19;20014;-25
2022/11/16 07:39:57;;;;;;;7.30;5.28;;;15.50;99.90;;;;;;4592735;19;20018;-24
2022/11/16 07:41:28;;;;;;;8.75;6.85;;;15.50;99.90;;;;;;4592758;19;20078;-25
2022/11/16 07:42:59;;;;;;;8.77;5.97;;;15.50;99.90;;;;;;4591915;19;20007;-24
2022/11/16 07:44:31;;;;;;;7.38;4.47;;;15.50;99.90;;;;;;4593391;19;20026;-24
2022/11/16 07:46:14;;;;;;;6.88;4.57;;;15.50;99.90;;;;;;4593836;19;20021;-24
2022/11/16 07:47:46;;;;;;;7.72;4.50;;;15.50;99.90;;;;;;4591642;19;20507;-24
2022/11/16 07:49:18;;;;;;;8.00;5.07;;;15.50;99.90;;;;;;4592482;19;20493;-24
2022/11/16 07:50:50;;;;;;;7.25;4.65;;;15.50;99.90;;;;;;4590348;19;20010;-24
2022/11/16 07:52:20;;;;;;;6.90;4.28;;;15.50;99.90;;;;;;4592345;19;20082;-24
2022/11/16 07:53:57;;;;;;;7.13;4.32;;;15.50;99.90;;;;;;4592556;19;20011;-24
2022/11/16 07:55:31;;;;;;;9.88;4.75;;;15.50;99.90;;;;;;4589910;19;20015;-25
2022/11/16 07:57:02;;;;;;;6.70;4.70;;;15.50;99.90;;;;;;4592679;19;20002;-24
2022/11/16 07:58:33;;;;;;;6.20;4.30;;;15.50;99.90;;;;;;4593255;19;20034;-24
2022/11/16 08:00:05;;;;;;;4.85;3.70;;;15.50;99.90;;;;;;4592938;19;20014;-23
2022/11/16 08:01:36;;;;;;;4.22;2.78;;;15.40;99.90;;;;;;4589310;19;20011;-24
2022/11/16 08:03:07;;;;;;;4.88;3.03;;;15.50;99.90;;;;;;4590443;19;20016;-24
2022/11/16 08:04:38;;;;;;;4.82;2.88;;;15.50;99.90;;;;;;4591566;19;20014;-26
2022/11/16 08:06:14;;;;;;;4.60;2.72;;;15.50;99.90;;;;;;4591157;19;20051;-25
2022/11/16 08:07:45;;;;;;;4.72;2.85;;;15.50;99.90;;;;;;4591361;19;20101;-23
2022/11/16 08:09:16;;;;;;;4.88;2.95;;;15.60;99.90;;;;;;4592833;19;20007;-24
2022/11/16 08:10:47;;;;;;;3.83;2.50;;;15.60;99.90;;;;;;4591206;19;20094;-25
2022/11/16 08:12:18;;;;;;;4.22;2.20;;;15.70;99.90;;;;;;4592075;19;20007;-24
2022/11/16 08:13:49;;;;;;;4.00;2.50;;;15.80;99.90;;;;;;4591769;19;20018;-23
2022/11/16 08:15:20;;;;;;;4.00;2.45;;;15.80;99.90;;;;;;4592432;19;20062;-24
2022/11/16 08:16:51;;;;;;;3.97;2.63;;;15.80;99.90;;;;;;4592184;19;20083;-23
2022/11/16 08:18:22;;;;;;;3.13;2.00;;;15.90;99.90;;;;;;4591329;19;20022;-24
2022/11/16 08:19:53;;;;;;;3.22;2.00;;;15.90;99.90;;;;;;4592042;19;20467;-27
2022/11/16 08:21:24;;;;;;;4.22;2.42;;;15.90;99.90;;;;;;4591659;19;20019;-24
2022/11/16 08:22:59;;;;;;;3.78;1.98;;;15.90;99.90;;;;;;4590741;19;20025;-24
2022/11/16 08:24:30;;;;;;;3.47;2.30;;;16.00;99.90;;;;;;4592263;19;20376;-23
2022/11/16 08:26:08;;;;;;;4.10;2.13;;;16.00;99.90;;;;;;4589803;19;20019;-24
2022/11/16 08:27:39;;;;;;;3.55;2.38;;;16.00;99.90;;;;;;4591767;19;20026;-23
2022/11/16 08:29:10;;;;;;;4.93;2.45;;;16.00;99.90;;;;;;4591056;19;20022;-24
2022/11/16 08:30:41;;;;;;;3.65;2.20;;;16.00;99.90;;;;;;4591381;19;20018;-23
2022/11/16 08:32:13;;;;;;;3.80;2.30;;;16.00;99.90;;;;;;4591227;19;20039;-23
2022/11/16 08:33:44;;;;;;;3.25;2.00;;;16.00;99.90;;;;;;4591424;19;20066;-24
2022/11/16 08:35:15;;;;;;;3.67;2.40;;;15.90;99.90;;;;;;4591952;19;20010;-25
2022/11/16 08:36:47;;;;;;;4.85;2.55;;;15.90;99.90;;;;;;4592079;19;20022;-25
2022/11/16 08:38:18;;;;;;;2.90;1.85;;;15.90;99.90;;;;;;4592941;19;20039;-23
2022/11/16 08:39:48;;;;;;;5.32;1.95;;;15.90;99.90;;;;;;4590675;19;20066;-23
2022/11/16 08:41:20;;;;;;;4.32;2.00;;;15.90;99.90;;;;;;4591552;19;20011;-24
2022/11/16 08:42:55;;;;;;;4.47;2.50;;;15.90;99.90;;;;;;4591109;19;20007;-24
2022/11/16 08:44:26;;;;;;;4.78;2.63;;;15.90;99.90;;;;;;4592292;19;20077;-23
2022/11/16 08:45:58;;;;;;;3.70;2.25;;;15.80;99.90;;;;;;4591597;19;20035;-24
2022/11/16 08:47:30;;;;;;;3.40;2.10;;;15.80;99.90;;;;;;4591710;19;20074;-24
2022/11/16 08:49:16;;;;;;;3.17;1.83;;;15.80;99.90;;;;;;4590344;19;20003;-24